createdAt,value
2023-01-13T00:00:01.787Z,84.73
2023-01-13T00:02:33.784Z,84.58
2023-01-13T00:05:07.219Z,84.81
2023-01-13T00:07:36.970Z,84.59
2023-01-13T00:10:11.757Z,84.73
2023-01-13T00:12:44.348Z,84.96
2023-01-13T00:15:17.020Z,84.62
2023-01-13T00:17:48.503Z,84.95
2023-01-13T00:20:19.147Z,84.82
2023-01-13T00:22:49.949Z,84.95
2023-01-13T00:25:19.909Z,84.86
2023-01-13T00:27:51.636Z,84.98
2023-01-13T00:30:22.343Z,85.14
2023-01-13T00:32:54.637Z,85.12
2023-01-13T00:35:29.191Z,84.97
2023-01-13T00:38:00.374Z,85.07
2023-01-13T00:40:30.234Z,85.11
2023-01-13T00:43:25.878Z,85.04
2023-01-13T00:45:56.796Z,84.92
2023-01-13T00:48:28.469Z,85.18
2023-01-13T00:50:59.631Z,85.01
2023-01-13T00:53:32.003Z,84.92
2023-01-13T00:56:05.739Z,85.18
2023-01-13T00:58:36.826Z,84.97
2023-01-13T01:01:09.433Z,85.26
2023-01-13T01:03:38.587Z,85.39
2023-01-13T01:06:09.528Z,85.22
2023-01-13T01:08:39.457Z,85.30
2023-01-13T01:11:11.109Z,85.21
2023-01-13T01:13:41.370Z,85.51
2023-01-13T01:16:12.936Z,85.43
2023-01-13T01:18:43.188Z,85.68
2023-01-13T01:21:14.182Z,85.92
2023-01-13T01:23:44.444Z,85.80
2023-01-13T01:26:17.927Z,86.12
2023-01-13T01:28:50.266Z,85.82
2023-01-13T01:31:21.891Z,85.94
2023-01-13T01:33:51.865Z,86.02
2023-01-13T01:36:23.059Z,85.88
2023-01-13T01:38:54.071Z,86.12
2023-01-13T01:41:26.570Z,86.07
2023-01-13T01:44:01.751Z,86.34
2023-01-13T01:46:43.003Z,86.23
2023-01-13T01:49:29.908Z,86.38
2023-01-13T01:52:00.406Z,86.78
2023-01-13T01:54:36.031Z,86.57
2023-01-13T01:57:05.890Z,87.09
2023-01-13T01:59:36.829Z,86.85
2023-01-13T02:02:10.954Z,87.08
2023-01-13T02:04:41.175Z,86.98
2023-01-13T02:07:12.552Z,87.16
2023-01-13T02:09:41.608Z,87.23
2023-01-13T02:12:32.700Z,87.37
2023-01-13T02:15:10.372Z,87.56
2023-01-13T02:17:56.020Z,87.38
2023-01-13T02:20:40.885Z,87.57
2023-01-13T02:23:53.489Z,87.44
2023-01-13T02:26:28.044Z,87.65
2023-01-13T02:29:29.319Z,87.83
2023-01-13T02:32:02.851Z,87.86
2023-01-13T02:34:51.957Z,88.04
2023-01-13T02:37:29.872Z,88.36
2023-01-13T02:40:04.776Z,88.13
2023-01-13T02:42:54.814Z,88.28
2023-01-13T02:45:32.011Z,88.45
2023-01-13T02:48:07.554Z,88.20
2023-01-13T02:50:42.753Z,88.38
2023-01-13T02:53:15.290Z,88.39
2023-01-13T02:55:47.370Z,88.50
2023-01-13T02:58:24.028Z,88.64
2023-01-13T03:00:58.401Z,88.61
2023-01-13T03:03:28.554Z,88.71
2023-01-13T03:06:10.626Z,88.76
2023-01-13T03:08:47.904Z,88.89
2023-01-13T03:11:19.184Z,89.01
2023-01-13T03:14:07.908Z,89.10
2023-01-13T03:16:50.444Z,89.01
2023-01-13T03:19:38.468Z,89.06
2023-01-13T03:22:41.854Z,89.31
2023-01-13T03:25:15.952Z,89.19
2023-01-13T03:27:55.623Z,89.41
2023-01-13T03:30:33.117Z,89.53
2023-01-13T03:33:10.956Z,89.51
2023-01-13T03:35:42.808Z,89.70
2023-01-13T03:38:12.349Z,89.82
2023-01-13T03:40:46.980Z,89.50
2023-01-13T03:43:40.129Z,89.89
2023-01-13T03:46:14.405Z,89.94
2023-01-13T03:48:47.240Z,90.00
2023-01-13T03:51:21.180Z,89.94
2023-01-13T03:53:53.289Z,90.01
2023-01-13T03:56:27.304Z,90.36
2023-01-13T03:58:58.528Z,90.25
2023-01-13T04:01:58.540Z,90.21
2023-01-13T04:04:31.144Z,90.53
2023-01-13T04:07:15.209Z,90.42
2023-01-13T04:10:05.434Z,90.67
2023-01-13T04:13:03.630Z,90.56
2023-01-13T04:15:32.577Z,90.62
2023-01-13T04:18:06.036Z,90.92
2023-01-13T04:20:44.466Z,90.97
2023-01-13T04:23:17.028Z,90.63
2023-01-13T04:25:47.193Z,90.88
2023-01-13T04:28:19.228Z,91.00
2023-01-13T04:30:49.192Z,90.86
2023-01-13T04:33:22.866Z,91.16
2023-01-13T04:35:53.162Z,90.93
2023-01-13T04:38:24.989Z,90.99
2023-01-13T04:40:56.691Z,90.88
2023-01-13T04:43:26.574Z,91.02
2023-01-13T04:45:56.020Z,91.19
2023-01-13T04:48:30.409Z,91.29
2023-01-13T04:51:04.313Z,91.39
2023-01-13T04:53:36.246Z,91.26
2023-01-13T04:56:08.541Z,91.58
2023-01-13T04:58:39.742Z,91.30
2023-01-13T05:01:10.073Z,91.69
2023-01-13T05:03:41.433Z,91.65
2023-01-13T05:06:11.228Z,91.73
2023-01-13T05:08:44.818Z,91.74
2023-01-13T05:11:33.084Z,91.82
2023-01-13T05:14:22.430Z,91.67
2023-01-13T05:17:03.718Z,91.90
2023-01-13T05:19:34.953Z,91.92
2023-01-13T05:22:22.651Z,92.01
2023-01-13T05:25:11.355Z,92.08
2023-01-13T05:27:41.487Z,92.20
2023-01-13T05:30:12.326Z,92.24
2023-01-13T05:32:42.952Z,92.23
2023-01-13T05:35:16.529Z,92.23
2023-01-13T05:37:48.487Z,92.16
2023-01-13T05:40:37.977Z,92.52
2023-01-13T05:43:22.224Z,92.45
2023-01-13T05:45:54.799Z,92.47
2023-01-13T05:48:25.641Z,92.50
2023-01-13T05:50:58.481Z,92.73
2023-01-13T05:53:29.473Z,92.79
2023-01-13T05:55:59.728Z,92.78
2023-01-13T05:58:34.102Z,92.86
2023-01-13T06:01:06.760Z,92.97
2023-01-13T06:03:36.683Z,93.26
2023-01-13T06:06:09.990Z,93.12
2023-01-13T06:08:40.900Z,93.17
2023-01-13T06:11:30.391Z,93.13
2023-01-13T06:14:01.214Z,93.01
2023-01-13T06:16:32.218Z,93.29
2023-01-13T06:19:03.331Z,93.42
2023-01-13T06:21:33.387Z,93.24
2023-01-13T06:24:04.802Z,93.17
2023-01-13T06:26:40.611Z,93.31
2023-01-13T06:29:10.540Z,93.33
2023-01-13T06:31:41.412Z,93.21
2023-01-13T06:34:14.023Z,92.94
2023-01-13T06:36:46.919Z,93.46
2023-01-13T06:39:20.574Z,93.41
2023-01-13T06:42:10.498Z,93.48
2023-01-13T06:44:41.667Z,93.71
2023-01-13T06:47:13.161Z,93.78
2023-01-13T06:49:43.289Z,93.58
2023-01-13T06:52:14.959Z,93.69
2023-01-13T06:54:44.901Z,93.55
2023-01-13T06:57:17.575Z,93.80
2023-01-13T07:00:12.443Z,93.74
2023-01-13T07:02:47.929Z,93.34
2023-01-13T07:05:19.791Z,93.71
2023-01-13T07:07:49.584Z,93.71
2023-01-13T07:10:22.647Z,93.70
2023-01-13T07:13:11.552Z,93.69
2023-01-13T07:15:42.594Z,93.90
2023-01-13T07:18:14.642Z,93.94
2023-01-13T07:20:52.152Z,93.71
2023-01-13T07:23:22.963Z,94.06
2023-01-13T07:25:52.874Z,93.72
2023-01-13T07:28:24.332Z,93.98
2023-01-13T07:30:54.564Z,93.80
2023-01-13T07:33:24.330Z,93.97
2023-01-13T07:35:59.303Z,94.00
2023-01-13T07:38:30.728Z,94.13
2023-01-13T07:41:23.859Z,94.10
2023-01-13T07:43:53.976Z,94.14
2023-01-13T07:46:26.382Z,93.92
2023-01-13T07:48:59.908Z,94.23
2023-01-13T07:51:29.372Z,94.20
2023-01-13T07:53:58.959Z,94.18
2023-01-13T07:56:30.268Z,94.37
2023-01-13T07:59:06.552Z,94.34
2023-01-13T08:01:37.780Z,94.46
2023-01-13T08:04:07.644Z,94.35
2023-01-13T08:06:39.714Z,94.60
2023-01-13T08:09:10.502Z,94.48
2023-01-13T08:11:40.408Z,94.67
2023-01-13T08:14:11.724Z,94.39
2023-01-13T08:16:44.266Z,94.37
2023-01-13T08:19:13.419Z,94.60
2023-01-13T08:21:42.168Z,94.52
2023-01-13T08:24:13.471Z,94.48
2023-01-13T08:26:43.854Z,94.53
2023-01-13T08:29:15.067Z,94.88
2023-01-13T08:31:45.389Z,94.67
2023-01-13T08:34:14.438Z,94.66
2023-01-13T08:36:47.321Z,94.84
2023-01-13T08:39:16.897Z,94.67
2023-01-13T08:41:59.038Z,94.67
2023-01-13T08:44:30.279Z,94.53
2023-01-13T08:46:59.736Z,94.59
2023-01-13T08:49:31.795Z,94.82
2023-01-13T08:54:02.269Z,94.47
2023-01-13T08:56:35.575Z,94.83
2023-01-13T08:59:06.504Z,94.83
2023-01-13T09:01:39.757Z,94.79
2023-01-13T09:04:16.753Z,94.60
2023-01-13T09:06:48.639Z,94.93
2023-01-13T09:11:22.580Z,94.81
2023-01-13T09:13:52.479Z,95.03
2023-01-13T09:16:49.522Z,94.97
2023-01-13T09:19:21.208Z,94.74
2023-01-13T09:21:52.954Z,94.98
2023-01-13T09:24:26.078Z,94.93
2023-01-13T09:26:56.891Z,94.98
2023-01-13T09:29:28.496Z,95.02
2023-01-13T09:31:59.897Z,94.76
2023-01-13T09:34:48.249Z,95.01
2023-01-13T09:37:19.870Z,95.05
2023-01-13T09:39:52.730Z,95.02
2023-01-13T09:43:04.629Z,94.86
2023-01-13T09:46:36.793Z,95.14
2023-01-13T09:49:08.463Z,95.26
2023-01-13T09:51:46.769Z,95.13
2023-01-13T09:54:56.700Z,95.06
2023-01-13T09:57:32.052Z,95.15
2023-01-13T10:00:06.272Z,95.36
2023-01-13T10:02:59.665Z,95.17
2023-01-13T10:05:50.821Z,95.02
2023-01-13T10:08:48.126Z,95.29
2023-01-13T10:11:42.645Z,95.38
2023-01-13T10:14:20.621Z,95.28
2023-01-13T10:17:09.494Z,95.27
2023-01-13T10:19:54.973Z,95.48
2023-01-13T10:22:45.366Z,95.38
2023-01-13T10:25:41.280Z,95.38
2023-01-13T10:28:37.263Z,95.57
2023-01-13T10:31:15.427Z,95.53
2023-01-13T10:33:48.723Z,95.44
2023-01-13T10:36:23.417Z,95.42
2023-01-13T10:38:53.538Z,95.76
2023-01-13T10:41:28.945Z,95.64
2023-01-13T10:44:14.505Z,95.83
2023-01-13T10:46:59.473Z,95.72
2023-01-13T10:49:38.055Z,95.81
2023-01-13T10:52:30.358Z,95.89
2023-01-13T10:55:01.647Z,95.54
2023-01-13T10:57:40.592Z,95.74
2023-01-13T11:00:31.639Z,95.49
2023-01-13T11:03:42.055Z,95.72
2023-01-13T11:06:27.517Z,95.46
2023-01-13T11:08:59.797Z,95.52
2023-01-13T11:11:36.815Z,95.43
2023-01-13T11:14:36.943Z,95.58
2023-01-13T11:17:26.569Z,95.73
2023-01-13T11:20:13.056Z,95.67
2023-01-13T11:22:53.364Z,95.62
2023-01-13T11:25:34.149Z,95.54
2023-01-13T11:28:17.738Z,95.82
2023-01-13T11:31:18.453Z,96.04
2023-01-13T11:34:18.533Z,95.97
2023-01-13T11:36:54.922Z,95.98
2023-01-13T11:39:45.920Z,96.08
2023-01-13T11:42:28.421Z,95.95
2023-01-13T11:45:19.835Z,95.97
2023-01-13T11:47:53.356Z,96.06
2023-01-13T11:50:36.987Z,96.11
2023-01-13T11:53:49.257Z,96.21
2023-01-13T11:56:32.802Z,95.99
2023-01-13T11:59:31.152Z,96.17
2023-01-13T12:02:30.909Z,96.09
2023-01-13T12:05:36.427Z,95.87
2023-01-13T12:08:50.001Z,96.04
2023-01-13T12:12:07.426Z,96.05
2023-01-13T12:14:41.103Z,96.19
2023-01-13T12:17:34.855Z,96.20
2023-01-13T12:20:30.795Z,96.18
2023-01-13T12:23:08.793Z,96.10
2023-01-13T12:25:53.541Z,96.00
2023-01-13T12:28:46.736Z,95.93
2023-01-13T12:31:19.491Z,95.99
2023-01-13T12:34:25.971Z,95.87
2023-01-13T12:37:15.754Z,96.39
2023-01-13T12:46:22.029Z,96.29
2023-01-13T12:48:57.375Z,96.31
2023-01-13T12:51:30.268Z,96.20
2023-01-13T12:54:02.189Z,96.26
2023-01-13T12:56:41.052Z,96.01
2023-01-13T12:59:19.323Z,96.27
2023-01-13T13:02:12.037Z,96.30
2023-01-13T13:04:49.880Z,96.49
2023-01-13T13:07:48.000Z,96.48
2023-01-13T13:10:32.164Z,96.73
2023-01-13T13:13:22.800Z,96.55
2023-01-13T13:16:27.278Z,96.62
2023-01-13T13:19:20.241Z,96.66
2023-01-13T13:22:16.513Z,96.48
2023-01-13T13:24:49.653Z,96.61
2023-01-13T13:27:43.231Z,96.48
2023-01-13T13:30:13.215Z,96.55
2023-01-13T13:33:01.090Z,96.63
2023-01-13T13:36:03.040Z,96.68
2023-01-13T13:39:09.022Z,96.51
2023-01-13T13:42:03.622Z,96.67
2023-01-13T13:45:05.267Z,96.74
2023-01-13T13:47:39.945Z,96.70
2023-01-13T13:50:33.540Z,96.67
2023-01-13T13:53:09.019Z,96.72
2023-01-13T13:55:41.591Z,96.72
2023-01-13T13:58:18.337Z,96.51
2023-01-13T14:00:53.680Z,96.84
2023-01-13T14:03:32.097Z,96.63
2023-01-13T14:06:07.495Z,96.56
2023-01-13T14:08:46.724Z,96.77
2023-01-13T14:11:31.906Z,96.74
2023-01-13T14:14:17.690Z,96.72
2023-01-13T14:16:47.275Z,96.93
2023-01-13T14:19:36.881Z,96.96
2023-01-13T14:22:07.357Z,96.95
2023-01-13T14:24:48.655Z,96.89
2023-01-13T14:27:20.277Z,97.12
2023-01-13T14:30:01.742Z,97.01
2023-01-13T14:32:39.042Z,97.01
2023-01-13T14:35:11.563Z,96.80
2023-01-13T14:37:43.194Z,96.79
2023-01-13T14:40:38.590Z,96.89
2023-01-13T14:43:14.368Z,97.09
2023-01-13T14:46:03.502Z,97.18
2023-01-13T14:48:37.620Z,96.99
2023-01-13T14:51:11.921Z,96.94
2023-01-13T14:53:47.657Z,96.92
2023-01-13T14:56:51.526Z,97.17
2023-01-13T14:59:47.880Z,97.16
2023-01-13T15:02:51.462Z,96.99
2023-01-13T15:05:24.773Z,96.96
2023-01-13T15:08:01.030Z,96.93
2023-01-13T15:10:35.492Z,96.86
2023-01-13T15:13:07.695Z,97.32
2023-01-13T15:15:39.493Z,97.08
2023-01-13T15:18:18.352Z,97.15
2023-01-13T15:20:53.993Z,97.08
2023-01-13T15:23:25.116Z,97.30
2023-01-13T15:25:56.106Z,97.03
2023-01-13T15:28:29.199Z,97.17
2023-01-13T15:31:02.089Z,97.21
2023-01-13T15:33:32.453Z,97.07
2023-01-13T15:36:06.626Z,97.15
2023-01-13T15:38:36.507Z,97.29
2023-01-13T15:41:10.824Z,97.21
2023-01-13T15:44:01.169Z,97.15
2023-01-13T15:46:38.436Z,97.36
2023-01-13T15:49:17.754Z,97.36
2023-01-13T15:51:49.896Z,97.29
2023-01-13T15:54:24.953Z,97.54
2023-01-13T15:56:56.372Z,97.63
2023-01-13T15:59:28.877Z,97.48
2023-01-13T16:02:01.685Z,97.70
2023-01-13T16:04:31.786Z,97.65
2023-01-13T16:07:03.548Z,97.73
2023-01-13T16:09:32.941Z,97.75
2023-01-13T16:12:06.568Z,97.84
2023-01-13T16:14:38.164Z,97.81
2023-01-13T16:17:19.133Z,97.69
2023-01-13T16:19:48.951Z,97.91
2023-01-13T16:22:21.832Z,97.80
2023-01-13T16:24:53.339Z,97.83
2023-01-13T16:27:26.213Z,97.69
2023-01-13T16:29:58.730Z,97.79
2023-01-13T16:32:29.095Z,97.73
2023-01-13T16:35:00.747Z,97.60
2023-01-13T16:37:31.647Z,98.06
2023-01-13T16:40:02.359Z,97.92
2023-01-13T16:42:33.022Z,97.71
2023-01-13T16:45:08.825Z,97.76
2023-01-13T16:47:40.220Z,97.74
2023-01-13T16:50:23.430Z,97.71
2023-01-13T16:52:52.948Z,97.76
2023-01-13T16:55:27.570Z,97.97
2023-01-13T16:58:06.986Z,97.86
2023-01-13T17:00:37.451Z,97.76
2023-01-13T17:03:08.105Z,97.79
2023-01-13T17:05:44.270Z,97.50
2023-01-13T17:08:19.043Z,97.59
2023-01-13T17:10:50.662Z,97.67
2023-01-13T17:13:25.068Z,97.50
2023-01-13T17:15:57.316Z,97.57
2023-01-13T17:18:31.806Z,97.56
2023-01-13T17:21:02.945Z,97.54
2023-01-13T17:23:34.191Z,97.50
2023-01-13T17:26:07.400Z,97.60
2023-01-13T17:28:41.448Z,97.48
2023-01-13T17:31:12.687Z,97.68
2023-01-13T17:33:43.637Z,97.57
2023-01-13T17:36:17.102Z,97.55
2023-01-13T17:38:48.589Z,97.88
2023-01-13T17:41:20.847Z,97.81
2023-01-13T17:43:51.446Z,97.68
2023-01-13T17:46:26.374Z,97.84
2023-01-13T17:48:58.336Z,97.84
2023-01-13T17:51:31.585Z,98.11
2023-01-13T17:54:06.607Z,98.02
2023-01-13T17:56:41.792Z,98.31
2023-01-13T18:00:07.273Z,98.17
2023-01-13T18:02:46.619Z,98.17
2023-01-13T18:05:22.636Z,98.00
2023-01-13T18:07:56.872Z,97.93
2023-01-13T18:10:31.160Z,97.69
2023-01-13T18:13:04.761Z,97.30
2023-01-13T18:15:37.124Z,97.38
2023-01-13T18:18:08.810Z,97.57
2023-01-13T18:20:56.873Z,97.45
2023-01-13T18:23:46.607Z,97.64
2023-01-13T18:26:39.577Z,97.88
2023-01-13T18:29:17.860Z,98.00
2023-01-13T18:31:51.149Z,97.82
2023-01-13T18:34:24.742Z,97.92
2023-01-13T18:36:58.322Z,97.96
2023-01-13T18:39:28.854Z,98.11
2023-01-13T18:42:17.282Z,97.91
2023-01-13T18:44:48.718Z,97.99
2023-01-13T18:47:20.885Z,97.95
2023-01-13T18:49:53.411Z,97.77
2023-01-13T18:52:24.875Z,97.80
2023-01-13T18:54:54.791Z,97.72
2023-01-13T18:57:28.180Z,97.59
2023-01-13T19:00:02.099Z,97.85
2023-01-13T19:02:33.818Z,97.83
2023-01-13T19:05:04.873Z,97.70
2023-01-13T19:07:37.510Z,97.73
2023-01-13T19:10:10.073Z,97.66
2023-01-13T19:12:40.951Z,97.46
2023-01-13T19:15:11.183Z,97.45
2023-01-13T19:17:41.493Z,97.27
2023-01-13T19:20:14.297Z,97.04
2023-01-13T19:22:54.656Z,97.01
2023-01-13T19:25:27.143Z,97.12
2023-01-13T19:27:58.203Z,97.02
2023-01-13T19:30:33.302Z,97.10
2023-01-13T19:33:05.084Z,97.05
2023-01-13T19:35:39.439Z,97.02
2023-01-13T19:38:13.240Z,96.91
2023-01-13T19:40:52.796Z,97.15
2023-01-13T19:43:44.241Z,97.06
2023-01-13T19:46:20.989Z,97.10
2023-01-13T19:48:55.665Z,97.00
2023-01-13T19:51:28.095Z,97.12
2023-01-13T19:53:58.618Z,97.09
2023-01-13T19:56:33.241Z,96.90
2023-01-13T19:59:09.155Z,96.97
2023-01-13T20:01:42.748Z,97.09
2023-01-13T20:04:15.267Z,96.93
2023-01-13T20:06:49.040Z,96.97
2023-01-13T20:09:21.453Z,96.91
2023-01-13T20:11:59.107Z,96.96
2023-01-13T20:14:32.684Z,96.68
2023-01-13T20:17:06.303Z,96.78
2023-01-13T20:19:39.928Z,96.82
2023-01-13T20:22:12.450Z,96.79
2023-01-13T20:24:49.157Z,96.76
2023-01-13T20:27:23.409Z,96.57
2023-01-13T20:29:54.862Z,96.64
2023-01-13T20:32:27.890Z,96.86
2023-01-13T20:34:58.533Z,96.36
2023-01-13T20:37:29.989Z,96.50
2023-01-13T20:40:02.917Z,96.56
2023-01-13T20:42:40.808Z,96.61
2023-01-13T20:45:22.621Z,96.54
2023-01-13T20:47:57.335Z,96.47
2023-01-13T20:50:34.569Z,96.76
2023-01-13T20:53:11.076Z,96.73
2023-01-13T20:55:47.983Z,96.40
2023-01-13T20:58:23.129Z,96.63
2023-01-13T21:01:00.070Z,96.51
2023-01-13T21:03:36.002Z,96.34
2023-01-13T21:06:08.082Z,96.42
2023-01-13T21:08:41.653Z,96.48
2023-01-13T21:11:15.298Z,96.34
2023-01-13T21:14:04.289Z,96.41
2023-01-13T21:16:36.273Z,96.56
2023-01-13T21:19:12.689Z,96.45
2023-01-13T21:21:44.419Z,96.33
2023-01-13T21:24:20.689Z,96.27
2023-01-13T21:27:01.322Z,96.13
2023-01-13T21:29:33.088Z,96.33
2023-01-13T21:32:05.421Z,96.21
2023-01-13T21:34:35.827Z,96.26
2023-01-13T21:37:06.471Z,95.97
2023-01-13T21:39:36.921Z,96.15
2023-01-13T21:42:32.060Z,96.24
2023-01-13T21:45:22.454Z,96.09
2023-01-13T21:47:53.860Z,96.09
2023-01-13T21:50:28.749Z,95.81
2023-01-13T21:53:00.533Z,95.93
2023-01-13T21:55:30.078Z,95.68
2023-01-13T21:58:08.971Z,95.82
2023-01-13T22:00:42.958Z,95.87
2023-01-13T22:03:19.243Z,95.82
2023-01-13T22:05:56.723Z,95.81
2023-01-13T22:08:29.789Z,96.07
2023-01-13T22:11:03.490Z,95.81
2023-01-13T22:13:52.658Z,95.67
2023-01-13T22:16:24.315Z,95.73
2023-01-13T22:18:57.061Z,95.29
2023-01-13T22:21:26.349Z,95.96
2023-01-13T22:23:59.736Z,95.96
2023-01-13T22:26:31.086Z,95.74
2023-01-13T22:29:02.758Z,95.92
2023-01-13T22:31:35.935Z,95.88
2023-01-13T22:34:07.658Z,95.85
2023-01-13T22:36:39.320Z,95.86
2023-01-13T22:39:12.714Z,95.68
2023-01-13T22:41:44.060Z,95.78
2023-01-13T22:44:16.367Z,96.09
2023-01-13T22:46:50.086Z,96.14
2023-01-13T22:49:20.660Z,95.86
2023-01-13T22:51:52.535Z,96.01
2023-01-13T22:54:24.855Z,95.68
2023-01-13T22:56:56.025Z,95.42
2023-01-13T23:00:42.830Z,95.69
2023-01-13T23:03:13.898Z,95.59
2023-01-13T23:05:48.866Z,95.27
2023-01-13T23:08:20.648Z,95.48
2023-01-13T23:10:51.056Z,95.36
2023-01-13T23:13:22.554Z,95.38
2023-01-13T23:15:53.207Z,95.30
2023-01-13T23:18:27.715Z,95.41
2023-01-13T23:21:02.511Z,95.40
2023-01-13T23:23:32.992Z,95.55
2023-01-13T23:26:06.689Z,95.44
2023-01-13T23:28:37.731Z,95.51
2023-01-13T23:31:17.934Z,95.49
2023-01-13T23:33:48.690Z,95.32
2023-01-13T23:36:20.966Z,95.23
2023-01-13T23:38:51.676Z,95.22
2023-01-13T23:41:25.045Z,95.30
2023-01-13T23:44:01.310Z,95.06
2023-01-13T23:46:33.922Z,95.23
2023-01-13T23:49:04.280Z,95.19
2023-01-13T23:51:37.529Z,95.19
2023-01-13T23:54:09.317Z,95.34
2023-01-13T23:56:41.849Z,95.16
2023-01-13T23:59:15.022Z,95.21
